Time;durP1;ratioP1;P1;durP2;ratioP2;P2;SDS_P1;SDS_P2;PMS_P1;PMS_P2;Temp;Humidity;BMP_temperature;BMP_pressure;BME280_temperature;BME280_humidity;BME280_pressure;Samples;Min_cycle;Max_cycle;Signal;HPM_P1;HPM_P2
2022/11/24 00:00:10;;;;;;;11.27;1.00;;;8.60;99.90;;;;;;5034691;28;20030;-73
2022/11/24 00:02:36;;;;;;;11.70;0.98;;;8.30;99.90;;;;;;5035046;28;20033;-73
2022/11/24 00:05:01;;;;;;;10.68;1.40;;;8.30;99.90;;;;;;5034683;28;20018;-72
2022/11/24 00:07:27;;;;;;;15.13;1.75;;;8.30;99.90;;;;;;5034686;28;20075;-73
2022/11/24 00:09:52;;;;;;;13.05;1.83;;;8.30;99.90;;;;;;5034614;28;20100;-73
2022/11/24 00:12:18;;;;;;;10.48;1.02;;;8.20;99.90;;;;;;5034416;28;20109;-73
2022/11/24 00:14:45;;;;;;;17.30;2.00;;;8.20;99.90;;;;;;5016919;28;20126;-73
2022/11/24 00:17:11;;;;;;;12.07;1.33;;;8.20;99.90;;;;;;5034714;28;20056;-73
2022/11/24 00:19:36;;;;;;;12.68;1.52;;;8.10;99.90;;;;;;5016378;28;20033;-73
2022/11/24 00:22:02;;;;;;;12.15;0.47;;;8.00;99.90;;;;;;5016679;28;20022;-73
2022/11/24 00:24:27;;;;;;;8.57;0.40;;;8.00;99.90;;;;;;5033823;28;20026;-73
2022/11/24 00:26:53;;;;;;;14.95;0.55;;;8.00;99.90;;;;;;5034379;28;20068;-73
2022/11/24 00:29:18;;;;;;;7.57;0.30;;;8.00;99.90;;;;;;5034220;28;20020;-73
2022/11/24 00:31:44;;;;;;;8.35;0.98;;;8.00;99.90;;;;;;5016601;28;20022;-73
2022/11/24 00:34:12;;;;;;;9.70;0.77;;;8.00;99.90;;;;;;5034074;28;20028;-73
2022/11/24 00:36:38;;;;;;;8.60;0.90;;;8.00;99.90;;;;;;5033575;28;20022;-72
2022/11/24 00:39:06;;;;;;;13.40;1.15;;;8.00;99.90;;;;;;5016368;28;20028;-73
2022/11/24 00:41:32;;;;;;;8.90;0.47;;;8.00;99.90;;;;;;5033971;28;20036;-73
2022/11/24 00:43:59;;;;;;;15.93;0.75;;;8.00;99.90;;;;;;5034548;28;20108;-73
2022/11/24 00:46:25;;;;;;;15.00;1.80;;;7.90;99.90;;;;;;5033804;28;20400;-73
2022/11/24 00:48:51;;;;;;;17.35;1.17;;;7.90;99.90;;;;;;5016134;28;20435;-73
2022/11/24 00:51:19;;;;;;;21.30;1.08;;;7.90;99.90;;;;;;5015809;28;20017;-73
2022/11/24 00:53:45;;;;;;;6.60;0.32;;;7.90;99.90;;;;;;5016337;28;20065;-73
2022/11/24 00:56:11;;;;;;;14.60;2.22;;;7.90;99.90;;;;;;5033829;28;20108;-73
2022/11/24 00:58:37;;;;;;;9.20;0.65;;;7.90;99.90;;;;;;5033631;28;20511;-72
2022/11/24 01:01:10;;;;;;;15.63;1.45;;;7.90;99.90;;;;;;5033306;28;20026;-72
2022/11/24 01:03:35;;;;;;;18.48;0.93;;;7.90;99.90;;;;;;5033597;28;20382;-72
2022/11/24 01:06:03;;;;;;;16.80;1.58;;;8.00;99.90;;;;;;5033878;28;20033;-72
2022/11/24 01:08:29;;;;;;;13.48;1.08;;;8.00;99.90;;;;;;5015934;28;20112;-73
2022/11/24 01:11:05;;;;;;;16.58;0.70;;;8.00;99.90;;;;;;5033698;28;20045;-73
2022/11/24 01:13:31;;;;;;;14.65;1.23;;;8.00;99.90;;;;;;5015732;28;20078;-73
2022/11/24 01:15:56;;;;;;;10.10;1.88;;;8.00;99.90;;;;;;5015719;28;20033;-73
2022/11/24 01:18:22;;;;;;;12.05;1.25;;;7.90;99.90;;;;;;5033437;28;20532;-73
2022/11/24 01:20:47;;;;;;;10.43;0.98;;;7.90;99.90;;;;;;5015855;28;20124;-73
2022/11/24 01:23:13;;;;;;;18.80;1.55;;;7.90;99.90;;;;;;5015578;28;20117;-72
2022/11/24 01:25:39;;;;;;;16.20;2.22;;;7.90;99.90;;;;;;5015765;28;20083;-73
2022/11/24 01:28:04;;;;;;;14.20;1.45;;;7.90;99.90;;;;;;5033571;28;20103;-73
2022/11/24 01:30:30;;;;;;;12.25;0.60;;;7.90;99.90;;;;;;5015718;28;20021;-73
2022/11/24 01:32:55;;;;;;;10.80;1.35;;;7.80;99.90;;;;;;5033704;28;20113;-73
2022/11/24 01:35:21;;;;;;;16.05;1.38;;;7.80;99.90;;;;;;5015406;28;20057;-73
2022/11/24 01:37:46;;;;;;;8.13;0.63;;;7.80;99.90;;;;;;5034190;28;20026;-73
2022/11/24 01:40:12;;;;;;;13.35;0.68;;;7.70;99.90;;;;;;5033326;28;20030;-73
2022/11/24 01:42:50;;;;;;;14.82;1.63;;;7.70;99.90;;;;;;5015619;28;20105;-73
2022/11/24 01:45:39;;;;;;;17.42;0.93;;;7.70;99.90;;;;;;5033172;28;20488;-72
2022/11/24 01:48:10;;;;;;;12.98;1.33;;;7.70;99.90;;;;;;5017201;28;20395;-73
2022/11/24 01:50:35;;;;;;;15.13;1.00;;;7.80;99.90;;;;;;5019496;28;20502;-72
2022/11/24 01:53:01;;;;;;;11.18;0.43;;;7.90;99.90;;;;;;5037307;28;20029;-73
2022/11/24 01:55:33;;;;;;;15.27;0.45;;;7.90;99.90;;;;;;5037007;28;20029;-73
2022/11/24 01:58:05;;;;;;;11.10;1.27;;;8.00;99.90;;;;;;5037096;28;20029;-72
2022/11/24 02:00:33;;;;;;;10.32;2.10;;;8.00;99.90;;;;;;5037209;28;20030;-73
2022/11/24 02:02:59;;;;;;;14.27;1.63;;;8.00;99.90;;;;;;5037192;28;20053;-73
2022/11/24 02:05:36;;;;;;;8.95;1.50;;;8.00;99.90;;;;;;5019181;28;20476;-73
2022/11/24 02:08:02;;;;;;;10.63;0.63;;;8.10;99.90;;;;;;5019328;28;20045;-73
2022/11/24 02:10:28;;;;;;;6.40;0.77;;;8.10;99.90;;;;;;5036959;28;20022;-73
2022/11/24 02:12:56;;;;;;;6.28;0.65;;;8.10;99.90;;;;;;5037313;28;20473;-73
2022/11/24 02:15:23;;;;;;;11.10;1.23;;;8.20;99.90;;;;;;5062404;22;20040;-74
2022/11/24 02:17:48;;;;;;;7.22;0.45;;;8.30;99.90;;;;;;5055229;28;20024;-74
2022/11/24 02:20:15;;;;;;;8.30;0.40;;;8.30;99.90;;;;;;5056159;28;20071;-74
2022/11/24 02:23:07;;;;;;;11.48;0.77;;;8.20;99.90;;;;;;5056083;28;20057;-74
2022/11/24 02:25:57;;;;;;;4.80;0.43;;;8.20;99.90;;;;;;5056049;28;20029;-74
2022/11/24 02:28:25;;;;;;;8.10;1.52;;;8.30;99.90;;;;;;5055091;28;20035;-74
2022/11/24 02:30:52;;;;;;;9.68;0.57;;;8.30;99.90;;;;;;5054850;28;20051;-74
2022/11/24 02:33:20;;;;;;;8.48;0.88;;;8.30;99.90;;;;;;5054428;28;20025;-74
2022/11/24 02:35:45;;;;;;;14.30;0.80;;;8.30;99.90;;;;;;5056120;28;20033;-74
2022/11/24 02:38:12;;;;;;;9.30;0.55;;;8.40;99.90;;;;;;5054683;28;20032;-74
2022/11/24 02:40:42;;;;;;;8.50;0.38;;;8.40;99.90;;;;;;5055935;28;20033;-74
2022/11/24 02:43:12;;;;;;;6.55;0.40;;;8.40;99.90;;;;;;5055899;28;20029;-74
2022/11/24 02:45:38;;;;;;;9.88;0.57;;;8.40;99.90;;;;;;5055884;28;20021;-74
2022/11/24 02:48:04;;;;;;;11.98;0.43;;;8.40;99.90;;;;;;5054160;28;20029;-74
2022/11/24 02:50:30;;;;;;;11.85;0.77;;;8.50;99.90;;;;;;5054379;28;20543;-74
2022/11/24 02:52:56;;;;;;;5.60;0.22;;;8.50;99.90;;;;;;5056219;28;20056;-74
2022/11/24 02:55:22;;;;;;;17.67;1.02;;;8.50;99.90;;;;;;5054268;28;20021;-74
2022/11/24 02:57:48;;;;;;;8.30;0.50;;;8.50;99.90;;;;;;5055600;28;20018;-74
2022/11/24 03:00:15;;;;;;;11.40;0.57;;;8.50;99.90;;;;;;5055401;28;20032;-74
2022/11/24 03:02:40;;;;;;;8.18;0.68;;;8.50;99.90;;;;;;5053640;28;20427;-74
2022/11/24 03:05:06;;;;;;;11.00;0.43;;;8.50;99.90;;;;;;5055517;28;20027;-74
2022/11/24 03:07:32;;;;;;;8.43;0.25;;;8.50;99.90;;;;;;5055462;28;20028;-74
2022/11/24 03:09:59;;;;;;;6.93;1.00;;;8.40;99.90;;;;;;5054385;28;20488;-74
2022/11/24 03:12:25;;;;;;;6.80;0.65;;;8.50;99.90;;;;;;5053810;28;20491;-74
2022/11/24 03:14:51;;;;;;;9.50;0.25;;;8.50;99.90;;;;;;5054197;28;20037;-74
2022/11/24 03:17:16;;;;;;;11.93;1.35;;;8.50;99.90;;;;;;5054950;28;20036;-74
2022/11/24 03:19:42;;;;;;;8.35;0.60;;;8.50;99.90;;;;;;5055470;28;20024;-74
2022/11/24 03:22:07;;;;;;;6.07;0.32;;;8.50;99.90;;;;;;5053812;28;20021;-74
2022/11/24 03:24:33;;;;;;;9.55;0.77;;;8.50;99.90;;;;;;5055130;28;20029;-74
2022/11/24 03:26:58;;;;;;;3.90;0.30;;;8.50;99.90;;;;;;5055440;28;20093;-74
2022/11/24 03:29:24;;;;;;;6.65;0.55;;;8.50;99.90;;;;;;5054136;28;20059;-74
2022/11/24 03:31:49;;;;;;;3.28;0.40;;;8.50;99.90;;;;;;5053347;28;20056;-74
2022/11/24 03:34:15;;;;;;;5.90;0.20;;;8.50;99.90;;;;;;5053352;28;20028;-74
2022/11/24 03:36:40;;;;;;;4.88;0.88;;;8.70;99.90;;;;;;5054742;28;20071;-74
2022/11/24 03:39:26;;;;;;;3.45;0.30;;;8.50;99.90;;;;;;5053730;28;20029;-74
2022/11/24 03:41:52;;;;;;;3.42;0.75;;;8.50;99.90;;;;;;5053560;28;20405;-74
2022/11/24 03:44:17;;;;;;;3.90;0.10;;;8.90;99.90;;;;;;5053985;28;20013;-74
2022/11/24 03:46:43;;;;;;;5.82;0.65;;;8.50;99.90;;;;;;5054596;28;20020;-74
2022/11/24 03:49:09;;;;;;;10.40;1.00;;;8.40;99.90;;;;;;5055496;28;20520;-75
2022/11/24 03:51:34;;;;;;;8.15;0.95;;;8.40;99.90;;;;;;5055047;28;20028;-75
2022/11/24 03:54:00;;;;;;;7.25;0.20;;;8.40;99.90;;;;;;5055020;28;20387;-74
2022/11/24 03:56:26;;;;;;;8.38;0.55;;;8.40;99.90;;;;;;5053338;28;20025;-74
2022/11/24 03:58:52;;;;;;;7.40;0.45;;;8.50;99.90;;;;;;5053019;28;20091;-75
2022/11/24 04:01:17;;;;;;;6.63;0.35;;;8.50;99.90;;;;;;5054373;28;20480;-75
2022/11/24 04:03:43;;;;;;;6.30;0.50;;;8.50;99.90;;;;;;5053792;28;20373;-75
2022/11/24 04:06:09;;;;;;;10.73;0.63;;;8.90;99.90;;;;;;5055446;28;20411;-75
2022/11/24 04:08:34;;;;;;;13.98;1.65;;;8.50;99.90;;;;;;5054686;28;20392;-75
2022/11/24 04:11:00;;;;;;;8.73;0.55;;;8.50;99.90;;;;;;5052947;28;20086;-75
2022/11/24 04:13:26;;;;;;;6.18;0.63;;;8.60;99.90;;;;;;5054476;28;20025;-75
2022/11/24 04:15:52;;;;;;;11.15;0.30;;;8.60;99.90;;;;;;5054431;28;20499;-74
2022/11/24 04:18:18;;;;;;;8.32;0.47;;;8.60;99.90;;;;;;5053835;28;20060;-74
2022/11/24 04:20:44;;;;;;;4.97;0.77;;;8.60;99.90;;;;;;5054421;28;20441;-74
2022/11/24 04:23:10;;;;;;;6.65;0.77;;;8.60;99.90;;;;;;5053960;28;20100;-74
2022/11/24 04:25:36;;;;;;;5.13;0.60;;;8.60;99.90;;;;;;5054490;28;20025;-74
2022/11/24 04:28:02;;;;;;;10.80;1.20;;;8.60;99.90;;;;;;5053187;28;20017;-74
2022/11/24 04:30:28;;;;;;;12.52;0.50;;;8.60;99.90;;;;;;5054146;28;20027;-74
2022/11/24 04:32:57;;;;;;;11.52;1.15;;;8.60;99.90;;;;;;5053673;28;20471;-74
2022/11/24 04:35:23;;;;;;;9.20;0.60;;;8.60;99.90;;;;;;5053984;28;20098;-74
2022/11/24 04:37:48;;;;;;;5.30;0.70;;;8.60;99.90;;;;;;5052706;28;20487;-74
2022/11/24 04:40:15;;;;;;;23.52;2.28;;;8.60;99.90;;;;;;5054650;28;20112;-74
2022/11/24 04:42:40;;;;;;;10.00;1.40;;;8.60;99.90;;;;;;5054416;28;20028;-74
2022/11/24 04:45:07;;;;;;;8.93;2.55;;;8.50;99.90;;;;;;5053936;28;20025;-74
2022/11/24 04:47:32;;;;;;;7.80;0.60;;;8.50;99.90;;;;;;5054572;28;20029;-74
2022/11/24 04:49:58;;;;;;;9.07;0.40;;;8.60;99.90;;;;;;5052371;28;20168;-75
2022/11/24 04:52:24;;;;;;;10.23;0.90;;;8.60;99.90;;;;;;5053926;28;20087;-75
2022/11/24 04:54:50;;;;;;;7.35;0.63;;;8.50;99.90;;;;;;5053712;28;20060;-75
2022/11/24 04:57:17;;;;;;;10.13;0.95;;;9.20;99.90;;;;;;5052555;28;20033;-75
2022/11/24 04:59:43;;;;;;;9.38;0.52;;;8.60;99.90;;;;;;5054052;28;20030;-75
2022/11/24 05:02:09;;;;;;;7.00;0.73;;;8.50;99.90;;;;;;5054135;28;20028;-75
2022/11/24 05:04:34;;;;;;;7.97;0.68;;;8.50;99.90;;;;;;5052307;28;20036;-75
2022/11/24 05:07:00;;;;;;;3.08;0.65;;;8.40;99.90;;;;;;5054311;28;20021;-75
2022/11/24 05:09:25;;;;;;;3.38;0.10;;;8.30;99.90;;;;;;5053759;28;20017;-75
2022/11/24 05:11:51;;;;;;;4.25;0.80;;;8.30;99.90;;;;;;5053780;28;20029;-75
2022/11/24 05:14:16;;;;;;;4.18;0.00;;;8.20;99.90;;;;;;5053653;28;20044;-75
2022/11/24 05:16:42;;;;;;;0.88;0.00;;;8.10;99.90;;;;;;5053545;28;20031;-75
2022/11/24 05:19:08;;;;;;;0.77;0.13;;;8.10;99.90;;;;;;5053778;28;20018;-74
2022/11/24 05:21:33;;;;;;;4.38;0.00;;;8.10;99.90;;;;;;5053094;28;20029;-75
2022/11/24 05:23:59;;;;;;;3.17;0.00;;;8.00;99.90;;;;;;5056339;28;20063;-75
2022/11/24 05:26:25;;;;;;;2.63;0.10;;;7.90;99.90;;;;;;5057491;28;20021;-75
2022/11/24 05:28:51;;;;;;;3.10;0.00;;;7.80;99.90;;;;;;5056160;28;20021;-74
2022/11/24 05:31:16;;;;;;;3.42;0.00;;;7.70;99.90;;;;;;5056204;28;20033;-74
2022/11/24 05:33:42;;;;;;;3.47;0.00;;;7.70;99.90;;;;;;5057519;28;20016;-75
2022/11/24 05:36:51;;;;;;;2.33;0.52;;;7.60;99.90;;;;;;5055780;28;20123;-74
2022/11/24 05:38:54;;;;;;;0.70;0.00;;;7.60;99.90;;;;;;5057380;28;20029;-75
2022/11/24 05:41:20;;;;;;;1.92;0.00;;;7.60;99.90;;;;;;5057557;28;20071;-75
2022/11/24 05:43:45;;;;;;;0.45;0.25;;;7.60;99.90;;;;;;5057236;28;20021;-75
2022/11/24 05:46:11;;;;;;;0.63;0.00;;;7.60;99.90;;;;;;5055745;28;20043;-75
2022/11/24 05:48:36;;;;;;;1.95;0.10;;;7.60;99.90;;;;;;5055891;28;20049;-75
2022/11/24 05:51:05;;;;;;;7.10;1.77;;;7.60;99.90;;;;;;5057406;28;20433;-75
2022/11/24 05:53:30;;;;;;;3.92;0.20;;;7.60;99.90;;;;;;5057657;28;20021;-75
2022/11/24 05:55:56;;;;;;;0.10;0.08;;;7.60;99.90;;;;;;5056844;28;20236;-75
2022/11/24 05:58:21;;;;;;;1.80;0.00;;;7.60;99.90;;;;;;5057563;28;20029;-75
2022/11/24 06:00:47;;;;;;;1.17;0.00;;;7.60;99.90;;;;;;5056988;28;20029;-75
2022/11/24 06:03:13;;;;;;;0.52;0.00;;;7.50;99.90;;;;;;5057510;28;20017;-74
2022/11/24 06:05:38;;;;;;;1.40;0.00;;;7.50;99.90;;;;;;5055682;28;20028;-74
2022/11/24 06:08:04;;;;;;;0.45;0.05;;;7.50;99.90;;;;;;5056781;28;20070;-75
2022/11/24 06:10:30;;;;;;;2.30;0.00;;;7.50;99.90;;;;;;5055597;28;20017;-75
2022/11/24 06:12:55;;;;;;;2.35;0.00;;;7.50;99.90;;;;;;5055677;28;20031;-75
2022/11/24 06:15:21;;;;;;;3.15;0.80;;;7.50;99.90;;;;;;5056245;28;20039;-75
2022/11/24 06:17:54;;;;;;;1.02;0.10;;;7.50;99.90;;;;;;5055518;28;20119;-75
2022/11/24 06:20:21;;;;;;;3.15;0.00;;;7.40;99.90;;;;;;5056350;28;20033;-75
2022/11/24 06:22:47;;;;;;;1.80;0.00;;;7.40;99.90;;;;;;5055316;28;20025;-75
2022/11/24 06:25:13;;;;;;;2.80;0.05;;;7.40;99.90;;;;;;5054957;28;20021;-75
2022/11/24 06:27:38;;;;;;;3.08;0.30;;;7.40;99.90;;;;;;5055283;28;20545;-75
2022/11/24 06:30:04;;;;;;;3.50;0.52;;;7.40;99.90;;;;;;5056855;28;20021;-76
2022/11/24 06:32:30;;;;;;;1.23;0.17;;;7.40;99.90;;;;;;5056740;28;20090;-76
2022/11/24 06:34:55;;;;;;;3.28;0.20;;;7.40;99.90;;;;;;5054555;28;20483;-76
2022/11/24 06:37:21;;;;;;;3.83;0.10;;;7.40;99.90;;;;;;5055240;28;20116;-76
2022/11/24 06:39:48;;;;;;;3.95;0.73;;;7.40;99.90;;;;;;5056331;28;20040;-76
2022/11/24 06:42:17;;;;;;;2.80;0.35;;;7.40;99.90;;;;;;5056377;28;20025;-76
2022/11/24 06:44:46;;;;;;;3.80;0.68;;;7.40;99.90;;;;;;5054892;28;20036;-76
2022/11/24 06:47:13;;;;;;;2.50;0.10;;;7.40;99.90;;;;;;5056075;28;20472;-76
2022/11/24 06:49:38;;;;;;;4.13;0.13;;;7.40;99.90;;;;;;5055020;28;20479;-76
2022/11/24 06:52:04;;;;;;;4.40;0.50;;;7.40;99.90;;;;;;5054599;28;20035;-76
2022/11/24 06:54:29;;;;;;;5.43;0.40;;;7.40;99.90;;;;;;5056492;28;20025;-76
2022/11/24 06:56:58;;;;;;;3.28;0.45;;;7.50;99.90;;;;;;5056602;28;20029;-76
2022/11/24 06:59:25;;;;;;;3.47;0.65;;;7.50;99.90;;;;;;5056174;28;20555;-76
2022/11/24 07:01:54;;;;;;;5.20;0.70;;;7.50;99.90;;;;;;5055188;28;20086;-76
2022/11/24 07:04:19;;;;;;;2.25;0.88;;;7.60;99.90;;;;;;5056286;28;20055;-76
2022/11/24 07:06:45;;;;;;;2.28;0.68;;;7.60;99.90;;;;;;5054674;28;20057;-76
2022/11/24 07:09:12;;;;;;;3.53;1.10;;;7.60;99.90;;;;;;5055867;28;20450;-76
2022/11/24 07:11:38;;;;;;;4.43;1.00;;;7.70;99.90;;;;;;5055731;28;20040;-75
2022/11/24 07:14:04;;;;;;;7.18;1.75;;;7.60;99.90;;;;;;5055693;28;20059;-76
2022/11/24 07:16:30;;;;;;;3.35;1.25;;;7.60;99.90;;;;;;5055528;28;20033;-76
2022/11/24 07:18:57;;;;;;;3.92;1.55;;;7.60;99.90;;;;;;5055582;28;20040;-76
2022/11/24 07:21:24;;;;;;;4.18;0.95;;;7.60;99.90;;;;;;5055628;28;20035;-76
2022/11/24 07:23:51;;;;;;;5.65;2.35;;;7.60;99.90;;;;;;5054234;28;20036;-76
2022/11/24 07:26:17;;;;;;;6.05;1.40;;;8.10;99.90;;;;;;5055464;28;20025;-76
2022/11/24 07:28:43;;;;;;;7.45;1.25;;;7.70;99.90;;;;;;5055350;28;20021;-76
2022/11/24 07:31:11;;;;;;;5.50;1.77;;;7.70;99.90;;;;;;5054264;28;20025;-76
2022/11/24 07:33:37;;;;;;;4.72;1.30;;;7.60;99.90;;;;;;5055217;28;20510;-76
2022/11/24 07:36:04;;;;;;;5.50;1.88;;;7.60;99.90;;;;;;5055234;28;20051;-76
2022/11/24 07:38:31;;;;;;;11.07;2.83;;;7.60;99.90;;;;;;5055186;28;20021;-76
2022/11/24 07:41:06;;;;;;;10.35;2.20;;;7.80;99.90;;;;;;5053726;28;20024;-75
2022/11/24 07:43:33;;;;;;;6.88;2.00;;;7.70;99.90;;;;;;5054194;28;20128;-75
2022/11/24 07:45:59;;;;;;;6.95;2.03;;;7.70;99.90;;;;;;5053650;28;20020;-76
2022/11/24 07:48:25;;;;;;;7.30;2.15;;;7.70;99.90;;;;;;5054961;28;20025;-76
2022/11/24 07:50:50;;;;;;;8.32;2.50;;;7.70;99.90;;;;;;5054887;28;20021;-76
2022/11/24 07:53:16;;;;;;;11.07;2.22;;;7.70;99.90;;;;;;5055483;28;20025;-76
2022/11/24 07:55:42;;;;;;;8.43;2.90;;;7.70;99.90;;;;;;5054761;28;20021;-76
2022/11/24 07:58:08;;;;;;;12.15;2.78;;;7.70;99.90;;;;;;5055099;28;20143;-76
2022/11/24 08:00:33;;;;;;;14.45;1.63;;;7.80;99.90;;;;;;5053381;28;20029;-76
2022/11/24 08:02:59;;;;;;;11.60;1.98;;;7.80;99.90;;;;;;5053198;28;20124;-76
2022/11/24 08:05:24;;;;;;;7.32;1.58;;;7.70;99.90;;;;;;5053098;28;20021;-76
2022/11/24 08:07:50;;;;;;;11.98;2.08;;;7.70;99.90;;;;;;5053167;28;20024;-76
2022/11/24 08:10:16;;;;;;;5.75;2.30;;;7.80;99.90;;;;;;5052899;28;20110;-76
2022/11/24 08:12:41;;;;;;;6.68;1.98;;;7.80;99.90;;;;;;5054375;28;20373;-76
2022/11/24 08:15:08;;;;;;;5.78;1.88;;;7.80;99.90;;;;;;5054340;28;20039;-76
2022/11/24 08:17:34;;;;;;;6.10;1.75;;;7.80;99.90;;;;;;5054820;28;20051;-76
2022/11/24 08:19:59;;;;;;;13.70;2.90;;;7.80;99.90;;;;;;5054179;28;20025;-76
2022/11/24 08:22:25;;;;;;;7.22;2.35;;;7.80;99.90;;;;;;5052665;28;20517;-76
2022/11/24 08:24:50;;;;;;;5.07;1.80;;;7.80;99.90;;;;;;5054644;28;20096;-76
2022/11/24 08:27:17;;;;;;;12.98;2.03;;;7.80;99.90;;;;;;5053092;28;20017;-76
2022/11/24 08:29:43;;;;;;;11.68;2.15;;;7.70;99.90;;;;;;5053069;28;20032;-76
2022/11/24 08:32:10;;;;;;;11.25;2.10;;;7.80;99.90;;;;;;5053279;28;20415;-76
2022/11/24 08:34:35;;;;;;;8.95;2.65;;;7.80;99.90;;;;;;5054061;28;20032;-76
2022/11/24 08:37:05;;;;;;;7.97;1.90;;;7.80;99.90;;;;;;5054592;28;20044;-76
2022/11/24 08:39:31;;;;;;;9.93;2.83;;;7.80;99.90;;;;;;5053926;28;20074;-76
2022/11/24 08:41:57;;;;;;;9.52;2.08;;;7.90;99.90;;;;;;5053690;28;20032;-76
2022/11/24 08:44:23;;;;;;;7.68;2.00;;;;;;;;;;5053962;28;20036;-76
2022/11/24 08:46:49;;;;;;;9.20;1.90;;;7.90;99.90;;;;;;5053847;28;20024;-76
2022/11/24 08:49:15;;;;;;;9.43;1.05;;;7.90;99.90;;;;;;5053752;28;20020;-76
2022/11/24 08:51:42;;;;;;;5.93;1.10;;;8.00;99.90;;;;;;5052762;28;20520;-76
2022/11/24 08:54:09;;;;;;;5.70;1.33;;;8.00;99.90;;;;;;5053812;28;20060;-76
2022/11/24 08:56:34;;;;;;;3.65;1.23;;;7.90;99.90;;;;;;5053736;28;20021;-76
2022/11/24 08:59:01;;;;;;;7.25;1.23;;;8.00;99.90;;;;;;5052895;28;20023;-76
2022/11/24 09:01:27;;;;;;;11.73;2.05;;;8.00;99.90;;;;;;5052381;28;20507;-76
2022/11/24 09:03:53;;;;;;;8.48;1.67;;;8.00;99.90;;;;;;5053820;28;20056;-76
2022/11/24 09:06:22;;;;;;;10.48;1.63;;;8.20;99.90;;;;;;5053588;28;20028;-76
2022/11/24 09:08:47;;;;;;;17.02;2.35;;;8.20;99.90;;;;;;5054103;28;20056;-76
2022/11/24 09:11:15;;;;;;;6.10;0.88;;;8.30;99.90;;;;;;5052608;28;20052;-76
2022/11/24 09:13:41;;;;;;;8.60;1.13;;;8.40;99.90;;;;;;5052377;28;20022;-76
2022/11/24 09:16:12;;;;;;;7.03;0.75;;;9.50;99.90;;;;;;5054314;28;20091;-76
2022/11/24 09:18:38;;;;;;;4.97;1.30;;;8.40;99.90;;;;;;5052769;28;20029;-76
2022/11/24 09:21:09;;;;;;;9.85;1.27;;;8.50;99.90;;;;;;5052873;28;20082;-75
2022/11/24 09:23:34;;;;;;;12.13;1.63;;;8.60;99.90;;;;;;5054035;28;20112;-75
2022/11/24 09:26:12;;;;;;;4.80;0.60;;;8.60;99.90;;;;;;5053796;28;20102;-75
2022/11/24 09:28:38;;;;;;;8.02;1.02;;;8.70;99.90;;;;;;5053697;28;20068;-74
2022/11/24 09:31:06;;;;;;;9.65;0.90;;;8.80;99.90;;;;;;5053509;28;20040;-73
2022/11/24 09:33:32;;;;;;;7.75;0.95;;;8.80;99.90;;;;;;5053666;28;20076;-73
2022/11/24 09:35:58;;;;;;;2.88;0.35;;;8.90;99.90;;;;;;5053229;28;20395;-73
2022/11/24 09:38:24;;;;;;;5.68;0.43;;;8.90;99.90;;;;;;5054239;28;20100;-73
2022/11/24 09:40:49;;;;;;;9.38;0.70;;;8.90;99.90;;;;;;5052198;28;20021;-73
2022/11/24 09:43:27;;;;;;;6.47;0.47;;;9.00;99.90;;;;;;5052315;28;20021;-71
2022/11/24 09:46:17;;;;;;;6.75;0.10;;;9.00;99.90;;;;;;5053488;28;20502;-73
2022/11/24 09:48:48;;;;;;;9.15;0.57;;;9.00;99.90;;;;;;5052264;28;20033;-73
2022/11/24 09:51:15;;;;;;;7.97;0.77;;;9.00;99.90;;;;;;5052403;28;20386;-73
2022/11/24 09:53:45;;;;;;;9.13;1.20;;;9.00;99.90;;;;;;5053627;28;20022;-73
2022/11/24 09:56:17;;;;;;;7.40;0.65;;;9.00;99.90;;;;;;5053499;28;20052;-73
2022/11/24 09:59:13;;;;;;;9.40;1.65;;;9.00;99.90;;;;;;5052281;28;20021;-73
2022/11/24 10:01:44;;;;;;;4.22;0.40;;;9.20;99.90;;;;;;5053418;28;20021;-73
2022/11/24 10:04:26;;;;;;;9.27;1.35;;;9.20;99.90;;;;;;5052995;28;20025;-73
2022/11/24 10:07:13;;;;;;;5.00;0.20;;;9.30;99.90;;;;;;5053653;28;20375;-73
2022/11/24 10:09:57;;;;;;;8.80;0.80;;;9.50;99.90;;;;;;5054504;28;20017;-73
2022/11/24 10:12:51;;;;;;;6.00;0.40;;;9.60;99.90;;;;;;5056779;28;20040;-73
2022/11/24 10:15:39;;;;;;;12.85;0.60;;;9.60;99.90;;;;;;5055249;28;20048;-73
2022/11/24 10:18:23;;;;;;;6.18;0.52;;;9.60;99.90;;;;;;5055559;28;20408;-73
2022/11/24 10:20:48;;;;;;;6.93;0.32;;;9.70;99.90;;;;;;5056790;28;20021;-73
2022/11/24 10:23:36;;;;;;;7.40;0.30;;;9.80;99.90;;;;;;5056602;28;20029;-73
2022/11/24 10:26:34;;;;;;;10.77;1.00;;;9.80;99.90;;;;;;5056866;28;20078;-73
2022/11/24 10:29:06;;;;;;;9.10;0.73;;;9.90;99.90;;;;;;5047483;28;20062;-73
2022/11/24 10:31:39;;;;;;;10.68;0.90;;;9.90;99.90;;;;;;5055771;28;20120;-73
2022/11/24 10:34:26;;;;;;;7.00;0.30;;;9.90;99.90;;;;;;5057147;28;20029;-73
2022/11/24 10:37:04;;;;;;;2.60;0.03;;;9.90;99.90;;;;;;5055112;28;20048;-73
2022/11/24 10:39:56;;;;;;;9.07;1.08;;;10.00;99.90;;;;;;5055164;28;20044;-73
2022/11/24 10:42:35;;;;;;;3.80;0.40;;;10.10;99.90;;;;;;5048945;28;20068;-72
2022/11/24 10:45:08;;;;;;;7.80;0.95;;;10.10;99.90;;;;;;5056761;28;20021;-73
2022/11/24 10:47:33;;;;;;;6.78;0.63;;;10.10;99.90;;;;;;5056225;28;20021;-73
2022/11/24 10:50:03;;;;;;;12.02;0.85;;;10.10;99.90;;;;;;5056456;28;20024;-72
2022/11/24 10:52:35;;;;;;;10.60;0.40;;;10.20;99.90;;;;;;5055684;28;20021;-73
2022/11/24 10:55:04;;;;;;;18.67;0.77;;;10.20;99.90;;;;;;5055111;28;20036;-72
2022/11/24 10:57:29;;;;;;;;;;;10.30;99.90;;;;;;5056914;28;20036;-72
2022/11/24 10:59:55;;;;;;;10.85;0.80;;;10.30;99.90;;;;;;5055985;28;19905;-72
2022/11/24 11:02:36;;;;;;;12.82;1.35;;;10.50;99.90;;;;;;5056172;28;20511;-73
2022/11/24 11:05:30;;;;;;;9.93;1.00;;;10.50;99.90;;;;;;5054550;28;20025;-73
2022/11/24 11:08:20;;;;;;;5.47;0.10;;;10.40;99.90;;;;;;5056424;28;20025;-73
2022/11/24 11:11:10;;;;;;;9.55;1.00;;;10.50;99.90;;;;;;5054785;28;20060;-73
2022/11/24 11:13:36;;;;;;;8.00;0.55;;;10.50;99.90;;;;;;5054481;28;20078;-73
2022/11/24 11:16:21;;;;;;;7.60;0.75;;;10.50;99.90;;;;;;5056041;28;20024;-73
2022/11/24 11:18:48;;;;;;;9.63;0.82;;;10.60;99.90;;;;;;5055736;28;20090;-73
2022/11/24 11:21:27;;;;;;;11.27;0.73;;;10.60;99.90;;;;;;5055366;28;20033;-73
2022/11/24 11:23:53;;;;;;;7.93;1.05;;;10.60;99.90;;;;;;5054229;28;20484;-73
2022/11/24 11:26:26;;;;;;;11.35;0.50;;;10.60;99.90;;;;;;5055161;28;20100;-73
2022/11/24 11:29:06;;;;;;;11.25;0.70;;;10.60;99.90;;;;;;5055560;28;20025;-73
2022/11/24 11:31:36;;;;;;;15.68;1.67;;;10.70;99.90;;;;;;5055872;28;20036;-73
2022/11/24 11:34:13;;;;;;;10.02;0.85;;;10.80;99.90;;;;;;5054375;28;20029;-73
2022/11/24 11:36:44;;;;;;;9.77;0.95;;;10.90;99.90;;;;;;5055510;28;20025;-73
2022/11/24 11:39:39;;;;;;;12.18;0.85;;;10.90;99.90;;;;;;5055124;28;20021;-72
2022/11/24 11:42:22;;;;;;;13.63;1.05;;;10.90;99.90;;;;;;5055512;28;20032;-73
2022/11/24 11:45:09;;;;;;;13.25;0.85;;;11.00;99.90;;;;;;5053403;28;20456;-73
2022/11/24 11:47:54;;;;;;;8.98;1.15;;;11.00;99.90;;;;;;5055157;28;20029;-73
2022/11/24 11:50:39;;;;;;;8.60;0.47;;;11.20;99.90;;;;;;5055049;28;20024;-73
2022/11/24 11:53:32;;;;;;;7.85;0.60;;;11.20;99.90;;;;;;5054651;28;20040;-73
2022/11/24 11:56:11;;;;;;;7.68;0.95;;;11.30;99.90;;;;;;5054714;28;20029;-73
2022/11/24 11:58:54;;;;;;;13.10;1.27;;;11.40;99.90;;;;;;5054909;28;20510;-73
2022/11/24 12:01:53;;;;;;;5.80;1.42;;;11.40;99.90;;;;;;5055163;28;20073;-73
2022/11/24 12:04:23;;;;;;;11.77;0.60;;;11.40;99.90;;;;;;5054636;28;20420;-73
2022/11/24 12:07:04;;;;;;;10.05;0.68;;;11.40;99.90;;;;;;5054511;28;20063;-73
2022/11/24 12:10:09;;;;;;;7.80;0.68;;;11.50;99.90;;;;;;5053089;28;20065;-73
2022/11/24 12:12:52;;;;;;;15.90;1.45;;;11.60;99.90;;;;;;5054078;28;20025;-73
2022/11/24 12:15:27;;;;;;;5.47;0.30;;;11.70;99.90;;;;;;5052726;28;20091;-73
2022/11/24 12:18:11;;;;;;;12.35;0.80;;;11.60;99.90;;;;;;5052846;28;20060;-73
2022/11/24 12:20:42;;;;;;;13.82;1.75;;;11.70;99.90;;;;;;5052677;28;20025;-73
2022/11/24 12:23:25;;;;;;;18.35;2.50;;;11.80;99.90;;;;;;5052529;28;20484;-73
2022/11/24 12:26:21;;;;;;;11.10;1.27;;;11.80;99.90;;;;;;5052747;28;20025;-73
2022/11/24 12:29:08;;;;;;;8.60;0.93;;;11.90;99.90;;;;;;5017786;28;20044;-73
2022/11/24 12:32:03;;;;;;;8.60;0.38;;;11.90;99.90;;;;;;5053316;28;20024;-73
2022/11/24 12:35:02;;;;;;;7.07;0.70;;;11.90;99.90;;;;;;5053635;28;20079;-73
2022/11/24 12:37:49;;;;;;;11.88;1.45;;;11.90;99.90;;;;;;5052331;28;20025;-73
2022/11/24 12:40:33;;;;;;;8.02;1.23;;;12.00;99.90;;;;;;5053877;28;20078;-72
2022/11/24 12:43:25;;;;;;;12.18;1.25;;;12.00;99.90;;;;;;5052601;28;20029;-73
2022/11/24 12:46:00;;;;;;;17.70;0.82;;;11.90;99.90;;;;;;5053680;28;20028;-73
2022/11/24 12:48:40;;;;;;;13.35;0.73;;;12.00;99.90;;;;;;5053529;28;20025;-72
2022/11/24 12:51:14;;;;;;;13.50;1.02;;;12.10;99.90;;;;;;5052231;28;20040;-73
2022/11/24 12:53:42;;;;;;;16.58;0.95;;;12.10;99.90;;;;;;5051872;28;20025;-72
2022/11/24 12:56:11;;;;;;;8.45;1.45;;;12.20;99.90;;;;;;5051808;28;20116;-74
2022/11/24 12:59:02;;;;;;;11.80;0.90;;;12.20;99.90;;;;;;5053179;28;20032;-72
2022/11/24 13:01:36;;;;;;;10.38;0.55;;;12.80;99.90;;;;;;5053182;28;20032;-73
2022/11/24 13:04:13;;;;;;;12.43;0.70;;;12.50;99.90;;;;;;5053180;28;20028;-73
2022/11/24 13:06:51;;;;;;;3.75;0.60;;;12.60;99.90;;;;;;5051924;28;20025;-73